createdAt,value
2019-02-02T00:02:24.589Z,70.18
2019-02-02T00:05:01.362Z,71.85
2019-02-02T00:07:34.609Z,71.65
2019-02-02T00:10:06.464Z,70.16
2019-02-02T00:12:36.355Z,67.37
2019-02-02T00:15:07.285Z,71.62
2019-02-02T00:17:37.350Z,71.63
2019-02-02T00:20:08.443Z,74.83
2019-02-02T00:22:38.753Z,75.08
2019-02-02T00:25:09.101Z,74.07
2019-02-02T00:27:41.435Z,73.13
2019-02-02T00:30:12.489Z,75.89
2019-02-02T00:32:42.784Z,73.23
2019-02-02T00:35:13.562Z,73.89
2019-02-02T00:37:43.649Z,72.91
2019-02-02T00:40:14.412Z,74.69
2019-02-02T00:42:44.421Z,74.69
2019-02-02T00:45:14.914Z,75.58
2019-02-02T00:47:45.067Z,76.65
2019-02-02T00:50:16.089Z,76.06
2019-02-02T00:52:46.096Z,72.17
2019-02-02T00:55:16.574Z,74.59
2019-02-02T00:57:53.459Z,75.05
2019-02-02T01:00:19.255Z,72.36
2019-02-02T01:02:49.810Z,70.83
2019-02-02T01:05:20.175Z,70.76
2019-02-02T01:08:08.568Z,70.64
2019-02-02T01:10:44.190Z,70.98
2019-02-02T01:13:42.533Z,71.97
2019-02-02T01:16:18.193Z,74.27
2019-02-02T01:19:02.251Z,73.36
2019-02-02T01:21:49.915Z,72.13
2019-02-02T01:24:19.894Z,73.61
2019-02-02T01:27:48.077Z,71.86
2019-02-02T01:30:55.356Z,72.17
2019-02-02T01:33:33.412Z,73.71
2019-02-02T01:36:03.582Z,74.34
2019-02-02T01:38:34.202Z,73.36
2019-02-02T01:41:04.101Z,73.11
2019-02-02T01:43:34.078Z,73.54
2019-02-02T01:46:04.182Z,72.13
2019-02-02T01:48:34.348Z,72.83
2019-02-02T01:51:05.027Z,71.79
2019-02-02T01:53:34.999Z,73.46
2019-02-02T01:56:04.992Z,75.40
2019-02-02T01:58:35.089Z,73.41
2019-02-02T02:01:06.283Z,73.12
2019-02-02T02:03:36.422Z,75.12
2019-02-02T02:06:06.409Z,78.52
2019-02-02T02:08:36.639Z,80.48
2019-02-02T02:11:07.609Z,80.52
2019-02-02T02:13:37.723Z,79.04
2019-02-02T02:16:07.683Z,78.96
2019-02-02T02:18:37.797Z,79.25
2019-02-02T02:21:07.761Z,79.98
2019-02-02T02:23:38.197Z,78.67
2019-02-02T02:26:08.377Z,81.39
2019-02-02T02:28:38.490Z,80.89
2019-02-02T02:31:08.430Z,82.11
2019-02-02T02:33:38.315Z,81.00
2019-02-02T02:36:11.506Z,79.84
2019-02-02T02:38:41.671Z,80.64
2019-02-02T02:41:11.556Z,79.24
2019-02-02T02:43:41.918Z,80.43
2019-02-02T02:46:11.803Z,78.19
2019-02-02T02:48:41.913Z,77.60
2019-02-02T02:51:11.834Z,80.61
2019-02-02T02:53:41.753Z,78.00
2019-02-02T02:56:11.649Z,76.24
2019-02-02T02:58:42.084Z,73.83
2019-02-02T03:01:12.041Z,73.06
2019-02-02T03:03:41.955Z,74.27
2019-02-02T03:06:12.029Z,74.64
2019-02-02T03:08:42.739Z,77.92
2019-02-02T03:11:12.627Z,78.00
2019-02-02T03:13:42.515Z,75.17
2019-02-02T03:16:12.443Z,75.48
2019-02-02T03:18:42.397Z,74.07
2019-02-02T03:21:12.279Z,74.97
2019-02-02T03:23:42.299Z,74.90
2019-02-02T03:26:12.278Z,75.70
2019-02-02T03:28:53.190Z,76.31
2019-02-02T03:31:14.002Z,75.74
2019-02-02T03:33:44.217Z,76.53
2019-02-02T03:36:14.115Z,75.63
2019-02-02T03:38:44.243Z,78.16
2019-02-02T03:41:14.230Z,77.81
2019-02-02T03:43:44.112Z,78.77
2019-02-02T03:46:14.021Z,77.77
2019-02-02T03:48:43.997Z,77.47
2019-02-02T03:51:13.905Z,76.03
2019-02-02T03:53:44.103Z,74.90
2019-02-02T03:56:14.000Z,75.78
2019-02-02T03:58:44.310Z,74.25
2019-02-02T04:01:14.175Z,73.73
2019-02-02T04:03:44.266Z,75.28
2019-02-02T04:06:14.345Z,77.75
2019-02-02T04:08:44.247Z,78.87
2019-02-02T04:11:14.131Z,78.30
2019-02-02T04:13:44.045Z,77.36
2019-02-02T04:16:14.161Z,77.20
2019-02-02T04:18:44.526Z,76.94
2019-02-02T04:21:14.430Z,74.73
2019-02-02T04:23:44.514Z,75.31
2019-02-02T04:26:14.422Z,74.32
2019-02-02T04:28:44.374Z,76.81
2019-02-02T04:31:14.363Z,78.06
2019-02-02T04:33:44.384Z,78.16
2019-02-02T04:36:14.409Z,77.93
2019-02-02T04:38:45.772Z,78.36
2019-02-02T04:41:15.967Z,80.41
2019-02-02T04:43:46.225Z,79.91
2019-02-02T04:46:16.181Z,80.17
2019-02-02T04:48:46.139Z,80.82
2019-02-02T04:51:16.058Z,81.85
2019-02-02T04:53:45.956Z,80.42
2019-02-02T04:56:16.079Z,79.19
2019-02-02T04:58:46.192Z,79.28
2019-02-02T05:01:16.334Z,79.93
2019-02-02T05:03:46.464Z,79.41
2019-02-02T05:06:16.634Z,77.70
2019-02-02T05:08:46.775Z,79.50
2019-02-02T05:11:16.667Z,79.02
2019-02-02T05:13:46.784Z,77.08
2019-02-02T05:16:16.825Z,76.89
2019-02-02T05:18:47.260Z,78.04
2019-02-02T05:21:17.168Z,76.77
2019-02-02T05:23:47.054Z,78.70
2019-02-02T05:26:17.215Z,75.97
2019-02-02T05:28:47.425Z,77.34
2019-02-02T05:31:17.321Z,77.69
2019-02-02T05:33:47.203Z,78.15
2019-02-02T05:36:17.122Z,79.50
2019-02-02T05:38:47.053Z,79.56
2019-02-02T05:41:17.442Z,76.22
2019-02-02T05:43:47.438Z,77.25
2019-02-02T05:46:17.982Z,76.76
2019-02-02T05:48:47.975Z,78.20
2019-02-02T05:51:17.865Z,75.33
2019-02-02T05:53:47.752Z,76.47
2019-02-02T05:56:17.839Z,75.57
2019-02-02T05:58:47.705Z,75.51
2019-02-02T06:01:19.822Z,76.04
2019-02-02T06:03:49.715Z,75.60
2019-02-02T06:06:19.590Z,73.97
2019-02-02T06:08:49.724Z,75.11
2019-02-02T06:11:19.827Z,74.54
2019-02-02T06:13:49.728Z,75.34
2019-02-02T06:16:19.677Z,74.45
2019-02-02T06:18:49.574Z,74.09
2019-02-02T06:21:19.702Z,73.22
2019-02-02T06:23:50.453Z,73.71
2019-02-02T06:26:20.342Z,75.00
2019-02-02T06:28:50.531Z,78.29
2019-02-02T06:31:20.422Z,77.38
2019-02-02T06:33:50.307Z,79.69
2019-02-02T06:36:20.213Z,77.32
2019-02-02T06:38:50.097Z,78.00
2019-02-02T06:41:19.970Z,78.31
2019-02-02T06:43:49.928Z,76.50
2019-02-02T06:46:19.976Z,75.14
2019-02-02T06:48:49.876Z,74.96
2019-02-02T06:51:20.304Z,75.38
2019-02-02T06:53:50.235Z,75.28
2019-02-02T06:56:20.368Z,74.97
2019-02-02T06:58:50.265Z,75.84
2019-02-02T07:01:20.198Z,75.94
2019-02-02T07:03:50.110Z,76.63
2019-02-02T07:06:20.215Z,77.51
2019-02-02T07:08:50.140Z,79.54
2019-02-02T07:11:20.021Z,78.97
2019-02-02T07:13:50.146Z,79.29
2019-02-02T07:16:20.242Z,78.72
2019-02-02T07:18:50.172Z,76.90
2019-02-02T07:21:20.034Z,75.99
2019-02-02T07:23:50.254Z,76.70
2019-02-02T07:26:20.189Z,75.38
2019-02-02T07:28:50.341Z,79.11
2019-02-02T07:31:20.224Z,76.51
2019-02-02T07:33:50.208Z,74.99
2019-02-02T07:36:20.201Z,74.77
2019-02-02T07:38:50.102Z,77.59
2019-02-02T07:41:20.003Z,76.07
2019-02-02T07:43:49.997Z,75.84
2019-02-02T07:46:19.894Z,74.82
2019-02-02T07:48:49.797Z,77.08
2019-02-02T07:51:19.692Z,75.69
2019-02-02T07:53:49.623Z,77.68
2019-02-02T07:56:19.593Z,78.29
2019-02-02T07:58:49.861Z,77.74
2019-02-02T08:01:19.827Z,77.04
2019-02-02T08:03:49.795Z,76.58
2019-02-02T08:06:19.791Z,75.12
2019-02-02T08:08:49.914Z,76.59
2019-02-02T08:11:19.943Z,76.57
2019-02-02T08:13:50.174Z,78.70
2019-02-02T08:16:20.149Z,77.81
2019-02-02T08:18:50.081Z,77.01
2019-02-02T08:21:20.085Z,75.61
2019-02-02T08:23:50.357Z,75.50
2019-02-02T08:26:20.572Z,74.58
2019-02-02T08:28:50.507Z,72.99
2019-02-02T08:31:20.434Z,72.34
2019-02-02T08:33:50.339Z,75.68
2019-02-02T08:36:20.645Z,77.44
2019-02-02T08:38:50.651Z,74.43
2019-02-02T08:41:20.617Z,73.77
2019-02-02T08:43:50.742Z,73.89
2019-02-02T08:46:20.663Z,74.14
2019-02-02T08:48:50.570Z,76.28
2019-02-02T08:51:20.691Z,75.77
2019-02-02T08:53:50.591Z,75.36
2019-02-02T08:56:20.513Z,76.78
2019-02-02T08:58:50.443Z,76.84
2019-02-02T09:01:32.775Z,77.30
2019-02-02T09:04:25.702Z,76.30
2019-02-02T09:06:55.892Z,74.91
2019-02-02T09:09:25.785Z,75.54
2019-02-02T09:11:55.671Z,74.94
2019-02-02T09:14:25.806Z,74.90
2019-02-02T09:16:55.762Z,74.82
2019-02-02T09:19:25.850Z,74.92
2019-02-02T09:21:55.754Z,74.61
2019-02-02T09:24:25.629Z,75.60
2019-02-02T09:26:55.571Z,76.62
2019-02-02T09:29:25.797Z,75.69
2019-02-02T09:31:55.724Z,75.98
2019-02-02T09:34:28.830Z,74.62
2019-02-02T09:36:57.490Z,73.65
2019-02-02T09:39:27.381Z,73.83
2019-02-02T09:41:57.327Z,75.32
2019-02-02T09:44:27.470Z,75.35
2019-02-02T09:46:57.354Z,75.05
2019-02-02T09:49:27.233Z,74.87
2019-02-02T09:51:57.102Z,74.30
2019-02-02T09:54:27.107Z,73.84
2019-02-02T09:56:57.283Z,74.46
2019-02-02T09:59:27.199Z,73.32
2019-02-02T10:01:57.401Z,73.01
2019-02-02T10:04:27.311Z,73.44
2019-02-02T10:06:57.218Z,72.95
2019-02-02T10:09:27.450Z,73.32
2019-02-02T10:11:57.641Z,72.69
2019-02-02T10:14:27.539Z,72.51
2019-02-02T10:16:57.436Z,73.87
2019-02-02T10:19:28.022Z,74.11
2019-02-02T10:21:58.268Z,75.20
2019-02-02T10:24:30.216Z,74.17
2019-02-02T10:27:00.173Z,72.59
2019-02-02T10:29:30.248Z,72.15
2019-02-02T10:32:00.199Z,72.27
2019-02-02T10:34:30.370Z,71.86
2019-02-02T10:37:00.289Z,72.22
2019-02-02T10:39:30.212Z,72.43
2019-02-02T10:42:00.140Z,72.92
2019-02-02T10:44:30.210Z,72.99
2019-02-02T10:47:00.343Z,72.63
2019-02-02T10:49:30.510Z,72.82
2019-02-02T10:52:00.383Z,72.95
2019-02-02T10:54:30.289Z,73.38
2019-02-02T10:57:00.187Z,72.76
2019-02-02T10:59:30.087Z,72.39
2019-02-02T11:02:00.044Z,72.67
2019-02-02T11:04:30.152Z,73.11
2019-02-02T11:07:00.299Z,72.62
2019-02-02T11:09:30.269Z,72.51
2019-02-02T11:12:00.309Z,72.07
2019-02-02T11:14:30.713Z,72.75
2019-02-02T11:17:00.868Z,71.52
2019-02-02T11:19:30.913Z,71.26
2019-02-02T11:22:01.027Z,71.34
2019-02-02T11:24:30.972Z,72.16
2019-02-02T11:27:01.100Z,73.67
2019-02-02T11:29:31.063Z,72.78
2019-02-02T11:32:02.985Z,71.96
2019-02-02T11:34:32.721Z,71.72
2019-02-02T11:37:02.619Z,71.65
2019-02-02T11:39:32.520Z,73.10
2019-02-02T11:42:02.410Z,72.81
2019-02-02T11:44:32.378Z,74.04
2019-02-02T11:47:02.297Z,74.64
2019-02-02T11:49:32.327Z,74.31
2019-02-02T11:52:02.397Z,75.09
2019-02-02T11:54:32.411Z,74.52
2019-02-02T11:57:02.494Z,73.28
2019-02-02T11:59:32.492Z,74.62
2019-02-02T12:02:14.072Z,73.12
2019-02-02T12:04:34.391Z,72.54
2019-02-02T12:07:04.376Z,73.38
2019-02-02T12:09:34.395Z,73.73
2019-02-02T12:12:04.709Z,73.14
2019-02-02T12:14:34.658Z,72.35
2019-02-02T12:17:04.767Z,72.06
2019-02-02T12:19:35.035Z,73.59
2019-02-02T12:22:05.092Z,73.85
2019-02-02T12:24:34.986Z,73.45
2019-02-02T12:27:04.969Z,72.95
2019-02-02T12:29:35.122Z,73.84
2019-02-02T12:32:05.275Z,73.36
2019-02-02T12:34:35.417Z,71.92
2019-02-02T12:37:05.685Z,72.31
2019-02-02T12:39:35.675Z,72.69
2019-02-02T12:42:05.701Z,73.73
2019-02-02T12:44:35.610Z,73.57
2019-02-02T12:47:05.644Z,73.58
2019-02-02T12:49:35.595Z,73.64
2019-02-02T12:52:05.603Z,74.33
2019-02-02T12:54:35.513Z,75.11
2019-02-02T12:57:05.565Z,74.40
2019-02-02T12:59:37.967Z,74.27
2019-02-02T13:02:07.337Z,73.69
2019-02-02T13:04:37.277Z,73.55
2019-02-02T13:07:07.143Z,74.20
2019-02-02T13:09:37.037Z,73.39
2019-02-02T13:12:07.175Z,74.56
2019-02-02T13:14:37.076Z,75.26
2019-02-02T13:17:07.022Z,74.54
2019-02-02T13:19:36.890Z,74.87
2019-02-02T13:22:06.838Z,74.62
2019-02-02T13:24:37.012Z,74.42
2019-02-02T13:27:07.111Z,74.37
2019-02-02T13:29:37.011Z,74.24
2019-02-02T13:32:06.891Z,74.87
2019-02-02T13:34:36.780Z,74.54
2019-02-02T13:37:07.039Z,74.01
2019-02-02T13:39:37.160Z,73.51
2019-02-02T13:42:07.025Z,73.11
2019-02-02T13:44:37.130Z,73.09
2019-02-02T13:47:07.077Z,72.93
2019-02-02T13:49:37.224Z,73.03
2019-02-02T13:52:07.188Z,72.65
2019-02-02T13:54:37.082Z,72.39
2019-02-02T13:57:07.278Z,71.87
2019-02-02T13:59:37.266Z,72.85
2019-02-02T14:02:07.619Z,72.93
2019-02-02T14:04:37.580Z,72.71
2019-02-02T14:07:17.692Z,72.67
2019-02-02T14:09:39.228Z,72.54
2019-02-02T14:12:09.183Z,72.73
2019-02-02T14:14:39.633Z,72.53
2019-02-02T14:17:09.552Z,72.54
2019-02-02T14:19:39.461Z,73.09
2019-02-02T14:22:09.719Z,72.34
2019-02-02T14:24:39.596Z,72.35
2019-02-02T14:27:09.749Z,72.79
2019-02-02T14:29:39.608Z,72.50
2019-02-02T14:32:09.634Z,72.45
2019-02-02T14:34:40.532Z,72.58
2019-02-02T14:37:10.879Z,72.00
2019-02-02T14:39:41.024Z,72.05
2019-02-02T14:42:10.973Z,71.88
2019-02-02T14:44:40.866Z,71.75
2019-02-02T14:47:10.741Z,71.86
2019-02-02T14:49:40.626Z,72.01
2019-02-02T14:52:10.742Z,71.88
2019-02-02T14:54:40.862Z,72.03
2019-02-02T14:57:10.775Z,72.70
2019-02-02T14:59:40.833Z,72.45
2019-02-02T15:02:10.784Z,72.34
2019-02-02T15:04:40.699Z,72.25
2019-02-02T15:07:10.852Z,72.00
2019-02-02T15:09:40.725Z,72.29
2019-02-02T15:12:11.088Z,72.36
2019-02-02T15:14:40.966Z,72.29
2019-02-02T15:17:10.858Z,72.46
2019-02-02T15:19:41.128Z,72.96
2019-02-02T15:22:11.260Z,72.56
2019-02-02T15:24:41.305Z,73.09
2019-02-02T15:27:11.233Z,72.92
2019-02-02T15:29:41.147Z,72.89
2019-02-02T15:32:11.201Z,72.45
2019-02-02T15:34:41.348Z,72.00
2019-02-02T15:37:11.281Z,72.20
2019-02-02T15:39:41.179Z,72.47
2019-02-02T15:42:11.086Z,71.94
2019-02-02T15:44:40.981Z,72.19
2019-02-02T15:47:10.940Z,72.46
2019-02-02T15:49:40.812Z,72.49
2019-02-02T15:52:10.953Z,72.03
2019-02-02T15:54:40.870Z,71.85
2019-02-02T15:57:10.948Z,71.92
2019-02-02T15:59:40.854Z,72.08
2019-02-02T16:02:11.351Z,72.35
2019-02-02T16:04:41.248Z,71.94
2019-02-02T16:07:11.143Z,72.15
2019-02-02T16:09:41.036Z,72.02
2019-02-02T16:12:10.945Z,71.85
2019-02-02T16:14:40.893Z,72.48
2019-02-02T16:17:11.338Z,71.73
2019-02-02T16:19:41.316Z,72.61
2019-02-02T16:22:11.277Z,72.10
2019-02-02T16:24:41.173Z,71.77
2019-02-02T16:27:11.064Z,71.92
2019-02-02T16:29:40.966Z,72.04
2019-02-02T16:32:10.855Z,72.02
2019-02-02T16:34:41.101Z,71.48
2019-02-02T16:37:11.004Z,71.84
2019-02-02T16:39:40.962Z,71.97
2019-02-02T16:42:11.096Z,71.78
2019-02-02T16:44:41.199Z,72.06
2019-02-02T16:47:11.085Z,71.71
2019-02-02T16:49:40.965Z,71.64
2019-02-02T16:52:11.122Z,71.52
2019-02-02T16:54:41.263Z,71.56
2019-02-02T16:57:11.194Z,71.72
2019-02-02T16:59:41.165Z,71.81
2019-02-02T17:02:11.093Z,71.88
2019-02-02T17:04:40.981Z,71.81
2019-02-02T17:07:10.915Z,71.26
2019-02-02T17:09:41.495Z,72.10
2019-02-02T17:12:11.531Z,71.72
2019-02-02T17:14:41.411Z,71.96
2019-02-02T17:17:11.562Z,71.82
2019-02-02T17:19:41.483Z,71.92
2019-02-02T17:22:11.655Z,72.90
2019-02-02T17:24:41.790Z,72.11
2019-02-02T17:27:11.760Z,71.39
2019-02-02T17:29:41.657Z,72.08
2019-02-02T17:32:11.639Z,71.98
2019-02-02T17:34:41.525Z,71.59
2019-02-02T17:37:11.835Z,71.55
2019-02-02T17:39:41.765Z,71.98
2019-02-02T17:42:11.692Z,71.48
2019-02-02T17:44:41.593Z,71.52
2019-02-02T17:47:11.502Z,71.95
2019-02-02T17:49:41.427Z,72.33
2019-02-02T17:52:11.569Z,72.44
2019-02-02T17:54:41.692Z,71.75
2019-02-02T17:57:11.573Z,72.77
2019-02-02T17:59:41.463Z,72.21
2019-02-02T18:02:11.362Z,71.96
2019-02-02T18:04:43.311Z,71.89
2019-02-02T18:07:13.111Z,71.65
2019-02-02T18:09:42.975Z,73.77
2019-02-02T18:12:12.908Z,73.26
2019-02-02T18:14:42.801Z,73.09
2019-02-02T18:17:13.035Z,72.42
2019-02-02T18:19:43.183Z,73.13
2019-02-02T18:22:13.042Z,72.18
2019-02-02T18:24:42.927Z,72.27
2019-02-02T18:27:12.815Z,72.17
2019-02-02T18:29:43.028Z,71.79
2019-02-02T18:32:13.525Z,71.98
2019-02-02T18:34:50.921Z,72.74
2019-02-02T18:37:15.053Z,72.96
2019-02-02T18:39:45.073Z,72.75
2019-02-02T18:42:14.966Z,73.57
2019-02-02T18:44:44.872Z,73.04
2019-02-02T18:47:14.821Z,74.71
2019-02-02T18:49:44.746Z,74.96
2019-02-02T18:52:14.918Z,73.54
2019-02-02T18:54:44.930Z,72.55
2019-02-02T18:57:14.889Z,72.72
2019-02-02T18:59:45.040Z,73.47
2019-02-02T19:02:15.026Z,72.62
2019-02-02T19:04:45.040Z,72.73
2019-02-02T19:07:15.263Z,73.09
2019-02-02T19:09:45.215Z,72.49
2019-02-02T19:12:15.309Z,72.51
2019-02-02T19:14:45.226Z,71.49
2019-02-02T19:17:15.156Z,71.37
2019-02-02T19:19:45.178Z,72.13
2019-02-02T19:22:15.203Z,71.26
2019-02-02T19:24:45.177Z,71.48
2019-02-02T19:27:15.210Z,73.13
2019-02-02T19:29:45.070Z,72.11
2019-02-02T19:32:16.171Z,71.74
2019-02-02T19:34:46.109Z,71.16
2019-02-02T19:37:16.075Z,71.71
2019-02-02T19:39:45.974Z,71.32
2019-02-02T19:42:16.011Z,71.26
2019-02-02T19:44:45.948Z,71.46
2019-02-02T19:47:16.476Z,72.58
2019-02-02T19:49:46.428Z,72.00
2019-02-02T19:52:16.822Z,71.63
2019-02-02T19:54:47.017Z,71.83
2019-02-02T19:57:17.039Z,73.95
2019-02-02T19:59:47.101Z,71.97
2019-02-02T20:02:17.056Z,71.18
2019-02-02T20:04:47.205Z,70.75
2019-02-02T20:07:17.321Z,72.24
2019-02-02T20:09:47.262Z,71.67
2019-02-02T20:12:17.209Z,72.54
2019-02-02T20:14:47.151Z,71.59
2019-02-02T20:17:17.401Z,73.03
2019-02-02T20:19:47.742Z,72.02
2019-02-02T20:22:17.738Z,71.51
2019-02-02T20:24:47.991Z,71.91
2019-02-02T20:27:18.270Z,73.76
2019-02-02T20:29:48.274Z,72.39
2019-02-02T20:32:18.212Z,71.09
2019-02-02T20:34:48.666Z,71.48
2019-02-02T20:37:18.576Z,71.90
2019-02-02T20:39:48.680Z,71.99
2019-02-02T20:42:18.591Z,72.29
2019-02-02T20:44:48.499Z,72.63
2019-02-02T20:47:18.475Z,72.66
2019-02-02T20:49:48.495Z,72.79
2019-02-02T20:52:18.497Z,72.34
2019-02-02T20:54:48.545Z,72.12
2019-02-02T20:57:18.898Z,72.93
2019-02-02T20:59:48.977Z,73.15
2019-02-02T21:02:18.970Z,73.74
2019-02-02T21:04:48.901Z,73.88
2019-02-02T21:07:18.865Z,72.81
2019-02-02T21:09:49.197Z,72.80
2019-02-02T21:12:19.195Z,75.34
2019-02-02T21:14:49.633Z,74.83
2019-02-02T21:17:19.927Z,75.58
2019-02-02T21:19:50.160Z,76.51
2019-02-02T21:22:20.535Z,77.00
2019-02-02T21:24:50.877Z,76.91
2019-02-02T21:27:21.075Z,76.80
2019-02-02T21:29:51.208Z,74.39
2019-02-02T21:32:21.207Z,74.01
2019-02-02T21:34:51.198Z,75.28
2019-02-02T21:37:21.278Z,74.59
2019-02-02T21:39:51.353Z,73.37
2019-02-02T21:42:21.281Z,74.17
2019-02-02T21:44:54.079Z,74.56
2019-02-02T21:47:25.190Z,75.41
2019-02-02T21:49:55.228Z,76.11
2019-02-02T21:52:25.701Z,76.74
2019-02-02T21:54:56.002Z,76.28
2019-02-02T21:57:26.195Z,76.22
2019-02-02T21:59:56.213Z,77.84
2019-02-02T22:02:26.257Z,75.67
2019-02-02T22:04:56.550Z,76.73
2019-02-02T22:07:26.517Z,76.31
2019-02-02T22:10:03.297Z,76.11
2019-02-02T22:12:33.209Z,76.28
2019-02-02T22:15:03.257Z,75.31
2019-02-02T22:17:34.046Z,75.57
2019-02-02T22:20:04.583Z,74.56
2019-02-02T22:22:34.657Z,74.79
2019-02-02T22:25:10.338Z,73.52
2019-02-02T22:27:41.407Z,73.25
2019-02-02T22:30:16.609Z,74.21
2019-02-02T22:32:48.009Z,74.38
2019-02-02T22:35:18.176Z,75.49
2019-02-02T22:37:50.040Z,75.82
2019-02-02T22:40:23.092Z,76.72
2019-02-02T22:42:53.216Z,76.16
2019-02-02T22:45:23.746Z,75.79
2019-02-02T22:47:54.196Z,77.15
2019-02-02T22:50:26.598Z,77.50
2019-02-02T22:52:57.908Z,78.75
2019-02-02T22:55:29.114Z,77.83
2019-02-02T22:57:59.519Z,77.29
2019-02-02T23:01:04.519Z,77.16
2019-02-02T23:03:46.584Z,78.42
2019-02-02T23:07:12.908Z,78.30
2019-02-02T23:10:26.453Z,77.87
2019-02-02T23:13:45.459Z,78.47
2019-02-02T23:16:31.328Z,79.46
2019-02-02T23:19:02.881Z,79.30
2019-02-02T23:21:33.638Z,79.73
2019-02-02T23:24:04.115Z,78.21
2019-02-02T23:26:34.264Z,78.04
2019-02-02T23:29:04.267Z,77.32
2019-02-02T23:31:34.328Z,77.59
2019-02-02T23:34:04.962Z,79.63
2019-02-02T23:36:34.925Z,80.36
2019-02-02T23:39:08.430Z,80.92
2019-02-02T23:41:38.940Z,80.66
2019-02-02T23:44:09.099Z,78.56
2019-02-02T23:46:39.160Z,78.22
2019-02-02T23:49:09.489Z,78.67
2019-02-02T23:51:39.425Z,78.71
2019-02-02T23:54:09.610Z,78.35
2019-02-02T23:56:39.884Z,78.48
2019-02-02T23:59:10.153Z,77.49
